Garden Valley, Texas
Current Conditions -  °F | °C
As of 5:53 PM on Wednesday 22 Oct 2014 (Local Time) from KTYR Reporting Station
Clear Clear  
Wind Chill: 76°   Ceiling: Unl
Heat Index: 76°   Visibility: 10mi
Dew Point: 53°   Wind: 7mph
Humidity: 45%   Direction: 60°ENE
Pressure: 30.08"   Gusts: NA
Location:  32.5326°N, 95.4249°W
Report Text: KTYR 222253Z 06006KT 10SM CLR 24/12 A3008 RMK AO2 SLP181 T02440117
Loading
Personal Weather Stations






























Interactive Weather Map
Tropical Storm Tracking
New forecast layout! Learn more

10-Day Weather Forecast

Advertisements
Track Severe Weather on mobile